createdAt,value
2022-08-27T00:02:16.086Z,18.79
2022-08-27T00:04:43.709Z,18.92
2022-08-27T00:07:11.368Z,18.84
2022-08-27T00:09:38.259Z,18.98
2022-08-27T00:12:05.475Z,19.11
2022-08-27T00:14:32.360Z,19.23
2022-08-27T00:16:58.304Z,19.22
2022-08-27T00:19:24.620Z,19.26
2022-08-27T00:21:50.910Z,19.13
2022-08-27T00:24:16.797Z,19.08
2022-08-27T00:26:43.541Z,19.00
2022-08-27T00:29:09.611Z,18.83
2022-08-27T00:31:35.793Z,18.80
2022-08-27T00:34:01.643Z,18.86
2022-08-27T00:36:27.656Z,18.77
2022-08-27T00:38:54.037Z,18.57
2022-08-27T00:41:20.459Z,18.73
2022-08-27T00:43:56.645Z,18.65
2022-08-27T00:46:50.078Z,18.43
2022-08-27T00:49:47.101Z,18.77
2022-08-27T00:52:36.085Z,18.58
2022-08-27T00:55:08.114Z,18.42
2022-08-27T00:57:38.116Z,18.49
2022-08-27T01:00:08.620Z,18.44
2022-08-27T01:02:34.569Z,18.53
2022-08-27T01:05:06.911Z,18.56
2022-08-27T01:07:43.443Z,18.34
2022-08-27T01:10:17.103Z,18.49
2022-08-27T01:12:43.461Z,18.64
2022-08-27T01:15:16.954Z,18.39
2022-08-27T01:17:47.246Z,18.45
2022-08-27T01:20:19.593Z,18.53
2022-08-27T01:23:15.746Z,18.50
2022-08-27T01:25:42.705Z,18.31
2022-08-27T01:28:09.886Z,18.37
2022-08-27T01:30:36.409Z,18.26
2022-08-27T01:33:14.164Z,18.23
2022-08-27T01:35:42.220Z,18.23
2022-08-27T01:38:18.301Z,18.08
2022-08-27T01:40:55.569Z,18.15
2022-08-27T01:43:22.009Z,18.39
2022-08-27T01:45:50.040Z,18.20
2022-08-27T01:48:20.860Z,18.22
2022-08-27T01:50:47.629Z,18.29
2022-08-27T01:53:17.309Z,18.25
2022-08-27T01:55:48.200Z,18.27
2022-08-27T01:58:15.473Z,18.34
2022-08-27T02:00:45.349Z,18.37
2022-08-27T02:03:12.110Z,18.33
2022-08-27T02:05:44.770Z,18.29
2022-08-27T02:08:15.165Z,18.26
2022-08-27T02:10:42.825Z,18.41
2022-08-27T02:13:08.878Z,18.32
2022-08-27T02:15:36.586Z,18.44
2022-08-27T02:18:03.472Z,18.19
2022-08-27T02:20:30.559Z,18.29
2022-08-27T02:22:57.216Z,18.42
2022-08-27T02:25:23.101Z,18.58
2022-08-27T02:27:49.980Z,18.70
2022-08-27T02:30:20.924Z,18.52
2022-08-27T02:32:47.164Z,18.24
2022-08-27T02:35:15.359Z,18.32
2022-08-27T02:37:41.839Z,18.05
2022-08-27T02:40:08.953Z,18.26
2022-08-27T02:42:34.865Z,18.14
2022-08-27T02:45:00.689Z,18.35
2022-08-27T02:47:27.425Z,18.21
2022-08-27T02:49:53.251Z,18.28
2022-08-27T02:52:24.813Z,18.26
2022-08-27T02:54:50.909Z,18.29
2022-08-27T02:57:17.561Z,18.45
2022-08-27T02:59:43.324Z,18.31
2022-08-27T03:02:09.960Z,18.06
2022-08-27T03:04:36.429Z,17.99
2022-08-27T03:07:02.471Z,18.14
2022-08-27T03:09:28.350Z,17.99
2022-08-27T03:11:54.441Z,17.80
2022-08-27T03:14:20.306Z,17.70
2022-08-27T03:16:46.100Z,17.79
2022-08-27T03:19:11.944Z,17.62
2022-08-27T03:21:38.561Z,17.67
2022-08-27T03:24:11.271Z,17.81
2022-08-27T03:26:40.743Z,17.99
2022-08-27T03:29:07.140Z,17.88
2022-08-27T03:31:33.445Z,17.74
2022-08-27T03:34:02.993Z,17.62
2022-08-27T03:36:30.218Z,17.78
2022-08-27T03:38:56.793Z,17.82
2022-08-27T03:41:24.355Z,17.98
2022-08-27T03:44:11.247Z,17.79
2022-08-27T03:46:44.275Z,17.82
2022-08-27T03:49:10.172Z,17.74
2022-08-27T03:51:39.141Z,17.86
2022-08-27T03:54:05.012Z,17.83
2022-08-27T03:56:33.187Z,17.98
2022-08-27T03:58:59.024Z,17.77
2022-08-27T04:01:25.162Z,18.07
2022-08-27T04:03:51.475Z,18.14
2022-08-27T04:06:17.570Z,18.34
2022-08-27T04:08:43.364Z,18.27
2022-08-27T04:11:09.648Z,18.19
2022-08-27T04:13:36.018Z,18.24
2022-08-27T04:16:04.643Z,18.06
2022-08-27T04:18:30.468Z,18.05
2022-08-27T04:20:57.174Z,18.14
2022-08-27T04:23:23.327Z,18.08
2022-08-27T04:25:49.353Z,18.21
2022-08-27T04:28:15.853Z,18.11
2022-08-27T04:30:44.772Z,18.04
2022-08-27T04:33:13.238Z,18.05
2022-08-27T04:35:39.780Z,17.92
2022-08-27T04:38:05.858Z,18.01
2022-08-27T04:40:51.223Z,18.08
2022-08-27T04:43:18.962Z,18.12
2022-08-27T04:45:46.847Z,18.21
2022-08-27T04:48:15.259Z,17.95
2022-08-27T04:50:42.813Z,17.91
2022-08-27T04:53:09.896Z,17.90
2022-08-27T04:55:47.980Z,17.82
2022-08-27T04:58:14.791Z,17.79
2022-08-27T05:00:47.720Z,17.98
2022-08-27T05:03:17.258Z,18.05
2022-08-27T05:05:43.842Z,17.87
2022-08-27T05:08:13.467Z,17.96
2022-08-27T05:10:45.741Z,18.13
2022-08-27T05:13:11.968Z,17.90
2022-08-27T05:15:39.358Z,18.01
2022-08-27T05:18:06.922Z,17.87
2022-08-27T05:20:33.613Z,17.78
2022-08-27T05:22:59.924Z,18.01
2022-08-27T05:25:26.960Z,17.88
2022-08-27T05:27:52.793Z,17.79
2022-08-27T05:30:18.763Z,17.89
2022-08-27T05:32:44.643Z,17.87
2022-08-27T05:35:13.998Z,17.87
2022-08-27T05:37:42.112Z,17.89
2022-08-27T05:40:08.839Z,17.65
2022-08-27T05:42:34.785Z,17.57
2022-08-27T05:45:00.661Z,17.65
2022-08-27T05:47:26.721Z,17.67
2022-08-27T05:49:53.458Z,17.84
2022-08-27T05:52:20.758Z,17.75
2022-08-27T05:54:47.213Z,17.85
2022-08-27T05:57:13.198Z,17.82
2022-08-27T05:59:57.875Z,17.64
2022-08-27T06:02:24.150Z,17.52
2022-08-27T06:04:50.145Z,17.40
2022-08-27T06:07:16.008Z,17.48
2022-08-27T06:09:42.435Z,17.43
2022-08-27T06:12:08.804Z,17.46
2022-08-27T06:14:36.088Z,17.36
2022-08-27T06:17:02.513Z,17.37
2022-08-27T06:19:28.458Z,17.54
2022-08-27T06:22:01.048Z,17.43
2022-08-27T06:24:38.549Z,17.48
2022-08-27T06:27:04.650Z,17.54
2022-08-27T06:29:30.487Z,17.61
2022-08-27T06:31:56.299Z,17.57
2022-08-27T06:34:22.099Z,17.62
2022-08-27T06:36:47.914Z,17.56
2022-08-27T06:39:14.900Z,17.65
2022-08-27T06:41:42.833Z,17.83
2022-08-27T06:44:09.181Z,17.68
2022-08-27T06:46:36.186Z,17.75
2022-08-27T06:49:02.515Z,17.51
2022-08-27T06:51:34.125Z,17.48
2022-08-27T06:54:06.172Z,17.39
2022-08-27T06:56:32.592Z,17.35
2022-08-27T06:59:00.949Z,17.57
2022-08-27T07:01:31.028Z,17.61
2022-08-27T07:03:59.217Z,17.53
2022-08-27T07:06:27.073Z,17.57
2022-08-27T07:08:53.483Z,17.51
2022-08-27T07:11:20.485Z,17.47
2022-08-27T07:13:47.682Z,17.45
2022-08-27T07:16:18.292Z,17.45
2022-08-27T07:18:45.874Z,17.49
2022-08-27T07:21:12.088Z,17.58
2022-08-27T07:23:38.832Z,17.60
2022-08-27T07:26:09.212Z,17.69
2022-08-27T07:28:37.337Z,17.70
2022-08-27T07:31:05.103Z,17.53
2022-08-27T07:33:31.300Z,17.62
2022-08-27T07:35:57.128Z,17.69
2022-08-27T07:38:23.172Z,17.70
2022-08-27T07:40:49.012Z,17.76
2022-08-27T07:43:33.213Z,17.89
2022-08-27T07:46:01.360Z,17.88
2022-08-27T07:48:27.334Z,17.96
2022-08-27T07:50:53.506Z,17.98
2022-08-27T07:53:20.370Z,17.91
2022-08-27T07:55:46.425Z,17.74
2022-08-27T07:58:16.782Z,17.67
2022-08-27T08:00:45.079Z,17.76
2022-08-27T08:03:12.538Z,17.83
2022-08-27T08:05:43.139Z,17.71
2022-08-27T08:08:10.939Z,17.75
2022-08-27T08:10:38.707Z,17.83
2022-08-27T08:13:05.989Z,17.86
2022-08-27T08:15:32.180Z,17.97
2022-08-27T08:17:58.433Z,17.98
2022-08-27T08:20:41.551Z,17.76
2022-08-27T08:23:10.597Z,17.61
2022-08-27T08:25:38.545Z,17.89
2022-08-27T08:28:04.703Z,17.85
2022-08-27T08:30:33.154Z,17.99
2022-08-27T08:33:01.428Z,17.96
2022-08-27T08:35:27.268Z,17.96
2022-08-27T08:38:00.942Z,17.92
2022-08-27T08:40:38.315Z,18.02
2022-08-27T08:43:07.470Z,18.02
2022-08-27T08:45:37.847Z,18.03
2022-08-27T08:48:08.998Z,18.06
2022-08-27T08:50:54.754Z,17.73
2022-08-27T08:53:26.394Z,17.80
2022-08-27T08:56:00.783Z,17.88
2022-08-27T08:58:37.563Z,17.97
2022-08-27T09:01:06.648Z,17.88
2022-08-27T09:03:35.593Z,17.77
2022-08-27T09:06:03.137Z,17.98
2022-08-27T09:08:42.429Z,18.03
2022-08-27T09:11:08.471Z,17.96
2022-08-27T09:13:39.914Z,18.08
2022-08-27T09:16:06.724Z,18.36
2022-08-27T09:18:36.390Z,18.34
2022-08-27T09:21:27.690Z,18.43
2022-08-27T09:24:23.398Z,18.45
2022-08-27T09:26:49.302Z,18.25
2022-08-27T09:29:19.893Z,18.34
2022-08-27T09:31:51.860Z,18.67
2022-08-27T09:34:17.680Z,18.55
2022-08-27T09:36:59.893Z,18.48
2022-08-27T09:39:32.428Z,18.56
2022-08-27T09:41:58.627Z,18.63
2022-08-27T09:44:24.838Z,18.42
2022-08-27T09:46:59.877Z,18.49
2022-08-27T09:49:26.263Z,18.63
2022-08-27T09:51:53.153Z,18.66
2022-08-27T09:54:31.838Z,18.34
2022-08-27T09:56:58.432Z,18.25
2022-08-27T09:59:49.217Z,18.04
2022-08-27T10:02:21.295Z,17.91
2022-08-27T10:04:53.532Z,18.01
2022-08-27T10:07:31.011Z,18.03
2022-08-27T10:10:00.848Z,17.87
2022-08-27T10:12:41.368Z,17.97
2022-08-27T10:15:09.247Z,18.00
2022-08-27T10:17:47.124Z,17.87
2022-08-27T10:20:37.669Z,17.88
2022-08-27T10:23:19.263Z,17.89
2022-08-27T10:26:16.178Z,17.87
2022-08-27T10:29:03.188Z,17.77
2022-08-27T10:31:56.709Z,17.83
2022-08-27T10:34:47.173Z,17.74
2022-08-27T10:37:40.182Z,17.86
2022-08-27T10:40:17.638Z,17.72
2022-08-27T10:42:52.068Z,17.70
2022-08-27T10:45:45.374Z,17.73
2022-08-27T10:48:33.851Z,17.44
2022-08-27T10:51:23.351Z,17.52
2022-08-27T10:53:58.345Z,17.53
2022-08-27T10:57:08.397Z,17.56
2022-08-27T10:59:56.384Z,17.58
2022-08-27T11:02:36.827Z,17.50
2022-08-27T11:05:20.138Z,17.59
2022-08-27T11:07:58.864Z,17.84
2022-08-27T11:10:33.326Z,17.50
2022-08-27T11:13:05.363Z,17.60
2022-08-27T11:15:35.907Z,17.75
2022-08-27T11:18:16.406Z,17.60
2022-08-27T11:21:11.384Z,17.71
2022-08-27T11:23:43.481Z,17.59
2022-08-27T11:26:09.451Z,17.72
2022-08-27T11:28:46.574Z,17.75
2022-08-27T11:31:28.993Z,18.01
2022-08-27T11:34:14.958Z,18.19
2022-08-27T11:37:03.497Z,18.31
2022-08-27T11:39:38.067Z,18.27
2022-08-27T11:42:18.383Z,18.09
2022-08-27T11:44:47.832Z,18.13
2022-08-27T11:47:25.420Z,18.25
2022-08-27T11:49:56.196Z,18.27
2022-08-27T11:52:53.212Z,18.41
2022-08-27T11:55:19.031Z,18.44
2022-08-27T11:57:46.437Z,18.43
2022-08-27T12:00:24.538Z,18.25
2022-08-27T12:03:01.485Z,18.39
2022-08-27T12:05:38.920Z,18.34
2022-08-27T12:08:28.292Z,18.19
2022-08-27T12:11:08.396Z,18.14
2022-08-27T12:14:11.606Z,18.35
2022-08-27T12:17:04.162Z,18.35
2022-08-27T12:20:02.616Z,18.51
2022-08-27T12:23:05.510Z,18.61
2022-08-27T12:25:31.756Z,18.72
2022-08-27T12:28:02.555Z,18.56
2022-08-27T12:30:35.148Z,18.36
2022-08-27T12:33:29.572Z,18.37
2022-08-27T12:35:58.400Z,18.58
2022-08-27T12:38:44.407Z,18.61
2022-08-27T12:41:43.837Z,18.56
2022-08-27T12:44:14.133Z,18.74
2022-08-27T12:46:49.550Z,18.91
2022-08-27T12:49:37.882Z,19.12
2022-08-27T12:52:31.716Z,19.46
2022-08-27T12:55:12.772Z,19.39
2022-08-27T12:57:57.447Z,19.16
2022-08-27T13:00:26.512Z,19.22
2022-08-27T13:03:07.847Z,19.33
2022-08-27T13:05:42.288Z,19.27
2022-08-27T13:08:33.358Z,19.23
2022-08-27T13:11:33.172Z,19.44
2022-08-27T13:14:10.935Z,19.66
2022-08-27T13:16:41.707Z,19.61
2022-08-27T13:19:19.976Z,19.43
2022-08-27T13:21:50.255Z,19.60
2022-08-27T13:24:34.209Z,19.68
2022-08-27T13:27:03.595Z,19.79
2022-08-27T13:29:30.508Z,19.73
2022-08-27T13:31:57.866Z,19.66
2022-08-27T13:34:26.636Z,19.70
2022-08-27T13:37:21.101Z,19.76
2022-08-27T13:39:52.321Z,19.69
2022-08-27T13:42:20.205Z,19.63
2022-08-27T13:44:48.172Z,19.76
2022-08-27T13:47:24.078Z,19.89
2022-08-27T13:49:51.217Z,19.96
2022-08-27T13:52:28.432Z,19.87
2022-08-27T13:55:07.015Z,19.95
2022-08-27T13:57:54.342Z,19.79
2022-08-27T14:00:31.115Z,19.48
2022-08-27T14:03:00.188Z,19.48
2022-08-27T14:05:28.717Z,19.33
2022-08-27T14:07:56.166Z,19.42
2022-08-27T14:10:38.950Z,19.35
2022-08-27T14:13:43.534Z,19.18
2022-08-27T14:16:22.225Z,18.95
2022-08-27T14:19:02.741Z,18.77
2022-08-27T14:21:29.190Z,18.97
2022-08-27T14:23:55.387Z,19.02
2022-08-27T14:26:21.266Z,18.77
2022-08-27T14:28:47.576Z,18.81
2022-08-27T14:31:14.207Z,18.77
2022-08-27T14:33:40.121Z,18.91
2022-08-27T14:36:07.291Z,18.92
2022-08-27T14:38:36.695Z,18.96
2022-08-27T14:41:02.710Z,19.03
2022-08-27T14:43:34.011Z,19.22
2022-08-27T14:46:00.694Z,19.26
2022-08-27T14:48:31.767Z,19.25
2022-08-27T14:51:01.742Z,19.47
2022-08-27T14:53:28.362Z,19.33
2022-08-27T14:55:58.101Z,19.44
2022-08-27T14:58:24.492Z,19.37
2022-08-27T15:00:51.467Z,19.32
2022-08-27T15:03:19.093Z,19.27
2022-08-27T15:05:44.954Z,19.50
2022-08-27T15:08:15.066Z,19.52
2022-08-27T15:10:42.113Z,19.53
2022-08-27T15:13:10.495Z,19.70
2022-08-27T15:15:38.010Z,19.82
2022-08-27T15:18:04.838Z,19.90
2022-08-27T15:20:31.376Z,19.77
2022-08-27T15:22:58.053Z,19.94
2022-08-27T15:25:24.518Z,19.99
2022-08-27T15:27:51.412Z,20.22
2022-08-27T15:30:24.453Z,20.37
2022-08-27T15:32:51.133Z,20.77
2022-08-27T15:35:22.158Z,20.54
2022-08-27T15:37:48.384Z,20.46
2022-08-27T15:40:17.676Z,20.46
2022-08-27T15:42:44.920Z,20.05
2022-08-27T15:45:12.347Z,19.92
2022-08-27T15:47:38.588Z,20.01
2022-08-27T15:50:05.836Z,20.05
2022-08-27T15:52:40.924Z,19.89
2022-08-27T15:55:18.069Z,19.87
2022-08-27T15:57:43.900Z,19.58
2022-08-27T16:00:10.382Z,19.66
2022-08-27T16:02:36.379Z,19.71
2022-08-27T16:05:02.352Z,19.82
2022-08-27T16:07:28.230Z,19.76
2022-08-27T16:09:54.234Z,19.72
2022-08-27T16:12:22.431Z,19.70
2022-08-27T16:14:54.420Z,19.58
2022-08-27T16:17:20.526Z,19.50
2022-08-27T16:19:46.531Z,19.43
2022-08-27T16:22:12.416Z,19.64
2022-08-27T16:24:38.259Z,19.23
2022-08-27T16:27:04.097Z,19.29
2022-08-27T16:29:29.985Z,19.23
2022-08-27T16:31:59.261Z,19.28
2022-08-27T16:34:29.027Z,19.45
2022-08-27T16:36:55.620Z,19.42
2022-08-27T16:39:21.825Z,19.44
2022-08-27T16:41:47.826Z,19.44
2022-08-27T16:44:15.043Z,19.38
2022-08-27T16:46:40.969Z,19.39
2022-08-27T16:49:25.486Z,19.47
2022-08-27T16:51:51.611Z,19.37
2022-08-27T16:54:18.134Z,19.43
2022-08-27T16:56:46.227Z,19.29
2022-08-27T16:59:12.400Z,19.24
2022-08-27T17:01:41.796Z,19.17
2022-08-27T17:04:16.125Z,19.22
2022-08-27T17:06:50.781Z,19.41
2022-08-27T17:09:17.869Z,19.48
2022-08-27T17:11:54.924Z,19.58
2022-08-27T17:14:20.889Z,19.71
2022-08-27T17:16:46.748Z,19.72
2022-08-27T17:19:17.030Z,19.72
2022-08-27T17:21:45.095Z,19.63
2022-08-27T17:24:12.557Z,19.58
2022-08-27T17:26:38.917Z,19.51
2022-08-27T17:29:04.934Z,19.47
2022-08-27T17:31:34.985Z,19.51
2022-08-27T17:34:01.294Z,19.62
2022-08-27T17:36:29.413Z,19.54
2022-08-27T17:38:56.328Z,19.49
2022-08-27T17:41:40.803Z,19.46
2022-08-27T17:44:18.857Z,19.41
2022-08-27T17:46:45.069Z,19.21
2022-08-27T17:49:10.970Z,19.22
2022-08-27T17:51:36.993Z,19.22
2022-08-27T17:54:05.126Z,19.26
2022-08-27T17:56:30.973Z,19.14
2022-08-27T17:58:57.151Z,19.21
2022-08-27T18:01:29.417Z,19.11
2022-08-27T18:03:57.235Z,19.19
2022-08-27T18:06:24.908Z,19.20
2022-08-27T18:08:50.967Z,19.13
2022-08-27T18:11:17.538Z,19.03
2022-08-27T18:13:47.330Z,18.90
2022-08-27T18:16:13.181Z,18.91
2022-08-27T18:18:39.015Z,18.96
2022-08-27T18:21:07.651Z,18.96
2022-08-27T18:23:33.537Z,18.86
2022-08-27T18:25:59.505Z,18.91
2022-08-27T18:28:27.958Z,19.01
2022-08-27T18:30:54.296Z,18.95
2022-08-27T18:33:20.222Z,18.91
2022-08-27T18:35:47.421Z,18.88
2022-08-27T18:38:13.513Z,18.81
2022-08-27T18:40:43.859Z,18.76
2022-08-27T18:43:10.100Z,18.74
2022-08-27T18:45:36.963Z,18.82
2022-08-27T18:48:11.427Z,18.78
2022-08-27T18:50:43.556Z,18.70
2022-08-27T18:53:09.430Z,18.77
2022-08-27T18:55:35.664Z,18.88
2022-08-27T18:58:01.642Z,18.67
2022-08-27T19:00:28.297Z,18.76
2022-08-27T19:02:54.410Z,18.74
2022-08-27T19:05:24.340Z,18.74
2022-08-27T19:07:50.359Z,18.82
2022-08-27T19:10:16.392Z,18.67
2022-08-27T19:12:42.511Z,18.71
2022-08-27T19:15:10.799Z,18.78
2022-08-27T19:17:37.777Z,18.85
2022-08-27T19:20:05.590Z,18.77
2022-08-27T19:22:32.044Z,18.89
2022-08-27T19:24:58.886Z,18.85
2022-08-27T19:27:26.800Z,18.81
2022-08-27T19:29:53.103Z,18.73
2022-08-27T19:32:19.939Z,18.73
2022-08-27T19:34:45.989Z,18.79
2022-08-27T19:37:18.244Z,18.63
2022-08-27T19:39:44.716Z,18.62
2022-08-27T19:42:10.980Z,18.74
2022-08-27T19:44:37.054Z,18.68
2022-08-27T19:47:03.121Z,18.57
2022-08-27T19:49:29.082Z,18.56
2022-08-27T19:51:54.980Z,18.51
2022-08-27T19:54:21.004Z,18.43
2022-08-27T19:56:46.886Z,18.41
2022-08-27T19:59:21.030Z,18.22
2022-08-27T20:01:47.794Z,18.21
2022-08-27T20:04:13.729Z,18.12
2022-08-27T20:06:39.661Z,18.09
2022-08-27T20:09:07.666Z,18.16
2022-08-27T20:11:33.721Z,18.15
2022-08-27T20:13:59.601Z,18.15
2022-08-27T20:16:27.163Z,18.21
2022-08-27T20:18:56.363Z,18.15
2022-08-27T20:21:24.430Z,18.00
2022-08-27T20:23:50.621Z,17.97
2022-08-27T20:26:16.449Z,18.09
2022-08-27T20:28:42.645Z,17.99
2022-08-27T20:31:08.684Z,17.98
2022-08-27T20:33:34.509Z,18.12
2022-08-27T20:36:02.132Z,18.15
2022-08-27T20:38:28.088Z,18.08
2022-08-27T20:40:53.973Z,18.16
2022-08-27T20:43:19.789Z,18.17
2022-08-27T20:45:46.161Z,18.12
2022-08-27T20:48:12.369Z,18.22
2022-08-27T20:50:38.364Z,17.98
2022-08-27T20:53:04.295Z,18.00
2022-08-27T20:55:30.214Z,18.17
2022-08-27T20:58:15.118Z,18.20
2022-08-27T21:00:42.250Z,18.08
2022-08-27T21:03:10.656Z,18.16
2022-08-27T21:05:37.708Z,18.18
2022-08-27T21:08:05.365Z,18.26
2022-08-27T21:10:32.170Z,18.31
2022-08-27T21:12:58.079Z,18.26
2022-08-27T21:15:24.752Z,18.31
2022-08-27T21:17:50.715Z,18.25
2022-08-27T21:20:17.075Z,18.35
2022-08-27T21:22:43.510Z,18.37
2022-08-27T21:25:11.828Z,18.31
2022-08-27T21:27:39.121Z,18.39
2022-08-27T21:30:06.771Z,18.38
2022-08-27T21:32:33.317Z,18.26
2022-08-27T21:34:59.161Z,18.09
2022-08-27T21:37:24.982Z,18.19
2022-08-27T21:39:50.844Z,18.08
2022-08-27T21:42:16.730Z,18.08
2022-08-27T21:44:42.757Z,18.07
2022-08-27T21:47:09.439Z,18.23
2022-08-27T21:49:35.306Z,18.23
2022-08-27T21:52:05.145Z,18.24
2022-08-27T21:54:33.646Z,18.14
2022-08-27T21:57:00.005Z,18.11
2022-08-27T21:59:29.917Z,18.17
2022-08-27T22:02:00.950Z,18.05
2022-08-27T22:04:27.468Z,18.14
2022-08-27T22:06:57.004Z,18.18
2022-08-27T22:09:23.036Z,18.10
2022-08-27T22:11:48.844Z,18.20
2022-08-27T22:14:15.201Z,18.23
2022-08-27T22:16:41.410Z,18.36
2022-08-27T22:19:07.528Z,18.33
2022-08-27T22:21:33.744Z,18.34
2022-08-27T22:23:59.820Z,18.38
2022-08-27T22:26:25.763Z,18.44
2022-08-27T22:28:51.591Z,18.38
2022-08-27T22:31:18.092Z,18.38
2022-08-27T22:33:44.076Z,18.27
2022-08-27T22:36:10.056Z,18.29
2022-08-27T22:38:35.902Z,18.26
2022-08-27T22:41:01.937Z,18.23
2022-08-27T22:43:27.928Z,18.10
2022-08-27T22:45:53.765Z,18.16
2022-08-27T22:48:19.737Z,18.31
2022-08-27T22:50:45.753Z,18.44
2022-08-27T22:53:11.628Z,18.42
2022-08-27T22:55:37.670Z,18.49
2022-08-27T22:58:04.019Z,18.44
2022-08-27T23:00:33.454Z,18.42
2022-08-27T23:03:01.048Z,18.43
2022-08-27T23:05:27.859Z,18.26
2022-08-27T23:07:58.238Z,18.26
2022-08-27T23:10:24.171Z,18.29
2022-08-27T23:12:52.862Z,18.35
2022-08-27T23:15:19.978Z,18.29
2022-08-27T23:17:46.083Z,18.24
2022-08-27T23:20:12.703Z,18.30
2022-08-27T23:22:39.048Z,18.13
2022-08-27T23:25:25.628Z,18.18
2022-08-27T23:27:51.896Z,18.11
2022-08-27T23:30:17.773Z,18.23
2022-08-27T23:32:46.484Z,18.19
2022-08-27T23:35:16.368Z,18.09
2022-08-27T23:37:42.228Z,18.06
2022-08-27T23:40:11.116Z,18.04
2022-08-27T23:42:38.319Z,18.03
2022-08-27T23:45:05.113Z,18.01
2022-08-27T23:47:30.994Z,18.00
2022-08-27T23:49:56.895Z,17.99
2022-08-27T23:52:22.764Z,17.96
2022-08-27T23:54:48.572Z,17.93
2022-08-27T23:57:14.989Z,17.95
2022-08-27T23:59:41.222Z,17.88
